sensor_id;sensor_type;location;lat;lon;timestamp;P1;durP1;ratioP1;P2;durP2;ratioP2
30249;SDS011;17064;47.974;13.826;2023-06-22T00:03:25;9.65;;;2.78;;
30249;SDS011;17064;47.974;13.826;2023-06-22T00:08:26;6.07;;;2.67;;
30249;SDS011;17064;47.974;13.826;2023-06-22T00:13:26;10.18;;;2.83;;
30249;SDS011;17064;47.974;13.826;2023-06-22T00:18:27;9.98;;;3.05;;
30249;SDS011;17064;47.974;13.826;2023-06-22T00:23:30;10.13;;;3.03;;
30249;SDS011;17064;47.974;13.826;2023-06-22T00:28:34;12.85;;;3.28;;
30249;SDS011;17064;47.974;13.826;2023-06-22T00:33:34;6.60;;;3.00;;
30249;SDS011;17064;47.974;13.826;2023-06-22T00:38:35;10.68;;;3.50;;
30249;SDS011;17064;47.974;13.826;2023-06-22T00:43:40;13.73;;;3.40;;
30249;SDS011;17064;47.974;13.826;2023-06-22T00:48:42;6.20;;;2.67;;
30249;SDS011;17064;47.974;13.826;2023-06-22T00:53:44;7.03;;;2.50;;
30249;SDS011;17064;47.974;13.826;2023-06-22T00:58:45;3.78;;;2.53;;
30249;SDS011;17064;47.974;13.826;2023-06-22T01:03:47;8.23;;;3.00;;
30249;SDS011;17064;47.974;13.826;2023-06-22T01:08:51;9.23;;;3.25;;
30249;SDS011;17064;47.974;13.826;2023-06-22T01:29:57;10.27;;;3.28;;
30249;SDS011;17064;47.974;13.826;2023-06-22T01:35:01;7.80;;;3.67;;
30249;SDS011;17064;47.974;13.826;2023-06-22T01:40:06;9.60;;;3.28;;
30249;SDS011;17064;47.974;13.826;2023-06-22T01:45:08;9.48;;;3.78;;
30249;SDS011;17064;47.974;13.826;2023-06-22T01:50:11;9.65;;;3.22;;
30249;SDS011;17064;47.974;13.826;2023-06-22T01:55:12;11.18;;;3.83;;
30249;SDS011;17064;47.974;13.826;2023-06-22T02:00:14;9.63;;;3.70;;
30249;SDS011;17064;47.974;13.826;2023-06-22T02:05:20;9.65;;;3.30;;
30249;SDS011;17064;47.974;13.826;2023-06-22T02:10:23;8.85;;;3.47;;
30249;SDS011;17064;47.974;13.826;2023-06-22T02:15:25;8.20;;;3.77;;
30249;SDS011;17064;47.974;13.826;2023-06-22T02:20:27;11.90;;;3.03;;
30249;SDS011;17064;47.974;13.826;2023-06-22T02:25:27;13.10;;;3.40;;
30249;SDS011;17064;47.974;13.826;2023-06-22T02:30:28;8.25;;;3.40;;
30249;SDS011;17064;47.974;13.826;2023-06-22T02:35:29;6.75;;;3.38;;
30249;SDS011;17064;47.974;13.826;2023-06-22T02:40:31;13.40;;;4.67;;
30249;SDS011;17064;47.974;13.826;2023-06-22T02:45:32;9.20;;;4.50;;
30249;SDS011;17064;47.974;13.826;2023-06-22T02:50:32;10.40;;;5.53;;
30249;SDS011;17064;47.974;13.826;2023-06-22T02:55:33;16.92;;;5.40;;
30249;SDS011;17064;47.974;13.826;2023-06-22T03:00:34;13.18;;;4.85;;
30249;SDS011;17064;47.974;13.826;2023-06-22T03:05:35;13.90;;;4.85;;
30249;SDS011;17064;47.974;13.826;2023-06-22T03:10:35;9.57;;;4.40;;
30249;SDS011;17064;47.974;13.826;2023-06-22T03:15:36;11.00;;;4.28;;
30249;SDS011;17064;47.974;13.826;2023-06-22T03:20:37;9.98;;;4.90;;
30249;SDS011;17064;47.974;13.826;2023-06-22T03:25:37;9.60;;;4.63;;
30249;SDS011;17064;47.974;13.826;2023-06-22T03:30:38;11.55;;;3.88;;
30249;SDS011;17064;47.974;13.826;2023-06-22T03:35:39;8.20;;;4.30;;
30249;SDS011;17064;47.974;13.826;2023-06-22T03:40:39;9.30;;;4.25;;
30249;SDS011;17064;47.974;13.826;2023-06-22T03:45:40;14.70;;;4.57;;
30249;SDS011;17064;47.974;13.826;2023-06-22T03:50:41;16.08;;;4.70;;
30249;SDS011;17064;47.974;13.826;2023-06-22T03:55:50;6.60;;;3.85;;
30249;SDS011;17064;47.974;13.826;2023-06-22T04:00:52;12.75;;;4.28;;
30249;SDS011;17064;47.974;13.826;2023-06-22T04:05:53;9.25;;;4.25;;
30249;SDS011;17064;47.974;13.826;2023-06-22T04:10:54;10.38;;;4.60;;
30249;SDS011;17064;47.974;13.826;2023-06-22T04:15:54;12.27;;;4.25;;
30249;SDS011;17064;47.974;13.826;2023-06-22T04:20:55;7.60;;;5.03;;
30249;SDS011;17064;47.974;13.826;2023-06-22T04:25:56;9.57;;;4.95;;
30249;SDS011;17064;47.974;13.826;2023-06-22T04:30:57;10.07;;;4.03;;
30249;SDS011;17064;47.974;13.826;2023-06-22T04:36:01;11.07;;;5.03;;
30249;SDS011;17064;47.974;13.826;2023-06-22T04:41:03;16.20;;;5.73;;
30249;SDS011;17064;47.974;13.826;2023-06-22T04:46:04;7.32;;;4.10;;
30249;SDS011;17064;47.974;13.826;2023-06-22T04:51:05;12.68;;;4.97;;
30249;SDS011;17064;47.974;13.826;2023-06-22T04:56:08;13.15;;;4.78;;
30249;SDS011;17064;47.974;13.826;2023-06-22T05:01:09;11.25;;;4.93;;
30249;SDS011;17064;47.974;13.826;2023-06-22T05:06:10;7.55;;;4.30;;
30249;SDS011;17064;47.974;13.826;2023-06-22T05:11:11;12.07;;;5.35;;
30249;SDS011;17064;47.974;13.826;2023-06-22T05:16:12;14.02;;;5.60;;
30249;SDS011;17064;47.974;13.826;2023-06-22T05:21:12;9.88;;;4.80;;
30249;SDS011;17064;47.974;13.826;2023-06-22T05:26:13;13.07;;;4.97;;
30249;SDS011;17064;47.974;13.826;2023-06-22T05:31:14;14.93;;;5.18;;
30249;SDS011;17064;47.974;13.826;2023-06-22T05:36:15;10.35;;;4.47;;
30249;SDS011;17064;47.974;13.826;2023-06-22T05:41:16;9.85;;;4.40;;
30249;SDS011;17064;47.974;13.826;2023-06-22T05:46:17;16.80;;;5.63;;
30249;SDS011;17064;47.974;13.826;2023-06-22T05:51:18;8.23;;;5.22;;
30249;SDS011;17064;47.974;13.826;2023-06-22T05:56:19;14.68;;;4.88;;
30249;SDS011;17064;47.974;13.826;2023-06-22T06:01:20;12.25;;;5.22;;
30249;SDS011;17064;47.974;13.826;2023-06-22T06:06:21;13.75;;;4.65;;
30249;SDS011;17064;47.974;13.826;2023-06-22T06:11:22;11.27;;;4.63;;
30249;SDS011;17064;47.974;13.826;2023-06-22T06:16:23;18.38;;;5.22;;
30249;SDS011;17064;47.974;13.826;2023-06-22T06:21:24;15.35;;;5.40;;
30249;SDS011;17064;47.974;13.826;2023-06-22T06:26:24;9.13;;;4.68;;
30249;SDS011;17064;47.974;13.826;2023-06-22T06:31:29;11.50;;;4.30;;
30249;SDS011;17064;47.974;13.826;2023-06-22T06:36:30;11.10;;;5.03;;
30249;SDS011;17064;47.974;13.826;2023-06-22T06:41:31;10.25;;;4.45;;
30249;SDS011;17064;47.974;13.826;2023-06-22T06:46:32;14.80;;;4.25;;
30249;SDS011;17064;47.974;13.826;2023-06-22T06:51:32;11.88;;;4.00;;
30249;SDS011;17064;47.974;13.826;2023-06-22T06:56:33;11.23;;;4.72;;
30249;SDS011;17064;47.974;13.826;2023-06-22T07:01:34;11.30;;;4.38;;
30249;SDS011;17064;47.974;13.826;2023-06-22T07:06:36;11.43;;;4.22;;
30249;SDS011;17064;47.974;13.826;2023-06-22T07:11:37;12.35;;;4.50;;
30249;SDS011;17064;47.974;13.826;2023-06-22T07:16:38;12.00;;;4.60;;
30249;SDS011;17064;47.974;13.826;2023-06-22T07:21:39;6.75;;;3.53;;
30249;SDS011;17064;47.974;13.826;2023-06-22T07:26:39;10.85;;;4.22;;
30249;SDS011;17064;47.974;13.826;2023-06-22T07:31:46;8.93;;;4.28;;
30249;SDS011;17064;47.974;13.826;2023-06-22T07:36:47;11.47;;;4.27;;
30249;SDS011;17064;47.974;13.826;2023-06-22T07:41:48;12.98;;;4.25;;
30249;SDS011;17064;47.974;13.826;2023-06-22T07:46:48;13.80;;;4.45;;
30249;SDS011;17064;47.974;13.826;2023-06-22T07:51:49;11.18;;;4.55;;
30249;SDS011;17064;47.974;13.826;2023-06-22T07:56:50;14.07;;;4.05;;
30249;SDS011;17064;47.974;13.826;2023-06-22T08:01:51;10.35;;;4.45;;
30249;SDS011;17064;47.974;13.826;2023-06-22T08:06:51;7.10;;;3.78;;
30249;SDS011;17064;47.974;13.826;2023-06-22T08:11:52;11.93;;;4.37;;
30249;SDS011;17064;47.974;13.826;2023-06-22T08:16:54;16.58;;;4.75;;
30249;SDS011;17064;47.974;13.826;2023-06-22T08:21:54;15.13;;;4.40;;
30249;SDS011;17064;47.974;13.826;2023-06-22T08:26:55;15.13;;;4.60;;
30249;SDS011;17064;47.974;13.826;2023-06-22T08:31:56;5.23;;;3.80;;
30249;SDS011;17064;47.974;13.826;2023-06-22T08:36:56;7.53;;;4.37;;
30249;SDS011;17064;47.974;13.826;2023-06-22T08:41:57;23.43;;;4.60;;
30249;SDS011;17064;47.974;13.826;2023-06-22T08:46:58;10.37;;;4.10;;
30249;SDS011;17064;47.974;13.826;2023-06-22T08:51:59;12.03;;;4.20;;
30249;SDS011;17064;47.974;13.826;2023-06-22T08:57:00;17.30;;;5.37;;
30249;SDS011;17064;47.974;13.826;2023-06-22T09:02:01;14.00;;;4.22;;
30249;SDS011;17064;47.974;13.826;2023-06-22T09:07:02;8.37;;;4.20;;
30249;SDS011;17064;47.974;13.826;2023-06-22T09:12:03;9.85;;;4.53;;
30249;SDS011;17064;47.974;13.826;2023-06-22T09:17:04;17.58;;;5.47;;
30249;SDS011;17064;47.974;13.826;2023-06-22T09:22:05;19.23;;;4.27;;
30249;SDS011;17064;47.974;13.826;2023-06-22T09:27:06;13.30;;;3.78;;
30249;SDS011;17064;47.974;13.826;2023-06-22T09:32:07;8.20;;;4.13;;
30249;SDS011;17064;47.974;13.826;2023-06-22T09:37:08;14.27;;;4.50;;
30249;SDS011;17064;47.974;13.826;2023-06-22T09:42:08;13.98;;;5.00;;
30249;SDS011;17064;47.974;13.826;2023-06-22T09:47:09;13.25;;;5.38;;
30249;SDS011;17064;47.974;13.826;2023-06-22T09:52:10;12.50;;;4.32;;
30249;SDS011;17064;47.974;13.826;2023-06-22T10:02:12;15.50;;;4.40;;
30249;SDS011;17064;47.974;13.826;2023-06-22T10:07:13;9.13;;;4.28;;
30249;SDS011;17064;47.974;13.826;2023-06-22T10:12:14;17.73;;;4.57;;
30249;SDS011;17064;47.974;13.826;2023-06-22T10:17:14;7.13;;;3.58;;
30249;SDS011;17064;47.974;13.826;2023-06-22T10:22:15;13.05;;;4.85;;
30249;SDS011;17064;47.974;13.826;2023-06-22T10:27:16;11.32;;;5.20;;
30249;SDS011;17064;47.974;13.826;2023-06-22T10:32:16;8.75;;;3.53;;
30249;SDS011;17064;47.974;13.826;2023-06-22T10:37:17;12.70;;;3.40;;
30249;SDS011;17064;47.974;13.826;2023-06-22T10:42:18;15.18;;;4.20;;
30249;SDS011;17064;47.974;13.826;2023-06-22T10:47:18;20.23;;;4.10;;
30249;SDS011;17064;47.974;13.826;2023-06-22T10:52:19;19.73;;;5.90;;
30249;SDS011;17064;47.974;13.826;2023-06-22T11:02:21;13.82;;;4.20;;
30249;SDS011;17064;47.974;13.826;2023-06-22T11:07:24;11.68;;;3.85;;
30249;SDS011;17064;47.974;13.826;2023-06-22T11:12:26;14.45;;;3.88;;
30249;SDS011;17064;47.974;13.826;2023-06-22T11:22:28;13.47;;;4.17;;
30249;SDS011;17064;47.974;13.826;2023-06-22T11:27:30;11.43;;;4.10;;
30249;SDS011;17064;47.974;13.826;2023-06-22T11:37:31;12.63;;;3.80;;
30249;SDS011;17064;47.974;13.826;2023-06-22T11:42:32;21.13;;;5.38;;
30249;SDS011;17064;47.974;13.826;2023-06-22T11:52:33;15.93;;;4.13;;
30249;SDS011;17064;47.974;13.826;2023-06-22T11:57:36;9.35;;;4.50;;
30249;SDS011;17064;47.974;13.826;2023-06-22T12:02:37;10.73;;;4.15;;
30249;SDS011;17064;47.974;13.826;2023-06-22T12:07:38;8.70;;;3.90;;
30249;SDS011;17064;47.974;13.826;2023-06-22T12:12:39;15.20;;;5.95;;
30249;SDS011;17064;47.974;13.826;2023-06-22T12:17:40;13.48;;;4.35;;
30249;SDS011;17064;47.974;13.826;2023-06-22T12:22:40;12.05;;;4.30;;
30249;SDS011;17064;47.974;13.826;2023-06-22T12:27:41;11.30;;;4.22;;
30249;SDS011;17064;47.974;13.826;2023-06-22T12:32:42;12.02;;;4.80;;
30249;SDS011;17064;47.974;13.826;2023-06-22T12:37:43;14.38;;;4.55;;
30249;SDS011;17064;47.974;13.826;2023-06-22T12:42:44;9.43;;;3.90;;
30249;SDS011;17064;47.974;13.826;2023-06-22T12:47:45;12.38;;;4.47;;
30249;SDS011;17064;47.974;13.826;2023-06-22T12:52:46;13.00;;;4.38;;
30249;SDS011;17064;47.974;13.826;2023-06-22T12:57:46;16.20;;;4.00;;
30249;SDS011;17064;47.974;13.826;2023-06-22T13:02:47;9.85;;;4.95;;
30249;SDS011;17064;47.974;13.826;2023-06-22T13:07:48;14.00;;;4.65;;
30249;SDS011;17064;47.974;13.826;2023-06-22T13:12:49;8.68;;;4.57;;
30249;SDS011;17064;47.974;13.826;2023-06-22T13:17:49;10.45;;;4.40;;
30249;SDS011;17064;47.974;13.826;2023-06-22T13:22:50;9.07;;;4.05;;
30249;SDS011;17064;47.974;13.826;2023-06-22T13:32:51;10.57;;;4.27;;
30249;SDS011;17064;47.974;13.826;2023-06-22T13:42:53;13.70;;;4.93;;
30249;SDS011;17064;47.974;13.826;2023-06-22T13:52:54;17.87;;;4.13;;
30249;SDS011;17064;47.974;13.826;2023-06-22T14:02:55;11.73;;;4.40;;
30249;SDS011;17064;47.974;13.826;2023-06-22T14:07:56;12.27;;;4.30;;
30249;SDS011;17064;47.974;13.826;2023-06-22T14:12:57;10.63;;;4.25;;
30249;SDS011;17064;47.974;13.826;2023-06-22T14:18:00;17.55;;;4.80;;
30249;SDS011;17064;47.974;13.826;2023-06-22T14:28:01;9.30;;;4.87;;
30249;SDS011;17064;47.974;13.826;2023-06-22T14:38:02;9.03;;;4.50;;
30249;SDS011;17064;47.974;13.826;2023-06-22T14:48:03;8.43;;;4.20;;
30249;SDS011;17064;47.974;13.826;2023-06-22T14:58:05;11.63;;;4.93;;
30249;SDS011;17064;47.974;13.826;2023-06-22T15:03:05;10.02;;;4.78;;
30249;SDS011;17064;47.974;13.826;2023-06-22T15:08:07;9.88;;;4.78;;
30249;SDS011;17064;47.974;13.826;2023-06-22T15:13:08;11.05;;;4.20;;
30249;SDS011;17064;47.974;13.826;2023-06-22T15:18:09;9.77;;;4.85;;
30249;SDS011;17064;47.974;13.826;2023-06-22T15:23:10;11.05;;;4.72;;
30249;SDS011;17064;47.974;13.826;2023-06-22T15:28:12;10.07;;;4.97;;
30249;SDS011;17064;47.974;13.826;2023-06-22T15:33:12;9.77;;;5.60;;
30249;SDS011;17064;47.974;13.826;2023-06-22T15:38:13;12.75;;;5.30;;
30249;SDS011;17064;47.974;13.826;2023-06-22T15:43:14;10.15;;;5.47;;
30249;SDS011;17064;47.974;13.826;2023-06-22T15:48:15;11.77;;;5.40;;
30249;SDS011;17064;47.974;13.826;2023-06-22T15:53:15;13.90;;;4.93;;
30249;SDS011;17064;47.974;13.826;2023-06-22T15:58:16;11.73;;;5.00;;
30249;SDS011;17064;47.974;13.826;2023-06-22T16:03:17;11.88;;;5.68;;
30249;SDS011;17064;47.974;13.826;2023-06-22T16:08:17;12.32;;;6.40;;
30249;SDS011;17064;47.974;13.826;2023-06-22T16:13:18;13.25;;;5.53;;
30249;SDS011;17064;47.974;13.826;2023-06-22T16:18:19;8.40;;;4.75;;
30249;SDS011;17064;47.974;13.826;2023-06-22T16:23:19;15.38;;;6.28;;
30249;SDS011;17064;47.974;13.826;2023-06-22T16:28:20;24.63;;;5.38;;
30249;SDS011;17064;47.974;13.826;2023-06-22T16:33:21;10.77;;;5.35;;
30249;SDS011;17064;47.974;13.826;2023-06-22T16:38:22;9.70;;;5.25;;
30249;SDS011;17064;47.974;13.826;2023-06-22T16:43:22;9.90;;;5.15;;
30249;SDS011;17064;47.974;13.826;2023-06-22T16:48:23;13.87;;;5.07;;
30249;SDS011;17064;47.974;13.826;2023-06-22T16:53:24;15.90;;;6.03;;
30249;SDS011;17064;47.974;13.826;2023-06-22T16:58:25;10.68;;;5.40;;
30249;SDS011;17064;47.974;13.826;2023-06-22T17:03:29;14.20;;;5.53;;
30249;SDS011;17064;47.974;13.826;2023-06-22T17:08:33;9.05;;;4.72;;
30249;SDS011;17064;47.974;13.826;2023-06-22T17:13:35;10.70;;;5.22;;
30249;SDS011;17064;47.974;13.826;2023-06-22T17:18:36;16.73;;;5.50;;
30249;SDS011;17064;47.974;13.826;2023-06-22T17:23:39;11.63;;;5.32;;
30249;SDS011;17064;47.974;13.826;2023-06-22T17:28:49;8.65;;;4.47;;
30249;SDS011;17064;47.974;13.826;2023-06-22T17:33:51;11.10;;;4.82;;
30249;SDS011;17064;47.974;13.826;2023-06-22T17:38:51;9.77;;;4.87;;
30249;SDS011;17064;47.974;13.826;2023-06-22T17:43:58;9.88;;;5.05;;
30249;SDS011;17064;47.974;13.826;2023-06-22T17:49:01;10.07;;;5.07;;
30249;SDS011;17064;47.974;13.826;2023-06-22T17:54:02;10.25;;;5.47;;
30249;SDS011;17064;47.974;13.826;2023-06-22T17:59:03;10.18;;;4.68;;
30249;SDS011;17064;47.974;13.826;2023-06-22T18:04:07;10.55;;;5.38;;
30249;SDS011;17064;47.974;13.826;2023-06-22T18:09:12;9.68;;;4.57;;
30249;SDS011;17064;47.974;13.826;2023-06-22T18:14:18;9.57;;;4.53;;
30249;SDS011;17064;47.974;13.826;2023-06-22T18:19:19;13.70;;;5.28;;
30249;SDS011;17064;47.974;13.826;2023-06-22T18:24:20;14.27;;;6.33;;
30249;SDS011;17064;47.974;13.826;2023-06-22T18:29:22;10.68;;;5.15;;
30249;SDS011;17064;47.974;13.826;2023-06-22T18:34:24;11.23;;;5.80;;
30249;SDS011;17064;47.974;13.826;2023-06-22T18:39:29;8.27;;;4.88;;
30249;SDS011;17064;47.974;13.826;2023-06-22T18:44:32;11.63;;;4.90;;
30249;SDS011;17064;47.974;13.826;2023-06-22T18:54:40;8.53;;;3.60;;
30249;SDS011;17064;47.974;13.826;2023-06-22T19:04:46;9.93;;;2.03;;
30249;SDS011;17064;47.974;13.826;2023-06-22T19:10:20;6.87;;;1.90;;
30249;SDS011;17064;47.974;13.826;2023-06-22T19:15:30;6.97;;;1.95;;
30249;SDS011;17064;47.974;13.826;2023-06-22T19:20:34;8.75;;;1.85;;
30249;SDS011;17064;47.974;13.826;2023-06-22T19:25:35;12.37;;;2.50;;
30249;SDS011;17064;47.974;13.826;2023-06-22T19:30:36;11.48;;;2.10;;
30249;SDS011;17064;47.974;13.826;2023-06-22T19:35:37;7.17;;;2.33;;
30249;SDS011;17064;47.974;13.826;2023-06-22T19:40:41;11.07;;;1.80;;
30249;SDS011;17064;47.974;13.826;2023-06-22T19:45:42;4.40;;;1.20;;
30249;SDS011;17064;47.974;13.826;2023-06-22T19:50:44;7.18;;;1.30;;
30249;SDS011;17064;47.974;13.826;2023-06-22T19:55:45;6.97;;;1.50;;
30249;SDS011;17064;47.974;13.826;2023-06-22T20:00:47;8.60;;;1.40;;
30249;SDS011;17064;47.974;13.826;2023-06-22T20:05:52;7.13;;;2.10;;
30249;SDS011;17064;47.974;13.826;2023-06-22T20:10:53;9.60;;;1.30;;
30249;SDS011;17064;47.974;13.826;2023-06-22T20:15:58;4.90;;;1.75;;
30249;SDS011;17064;47.974;13.826;2023-06-22T20:21:12;9.82;;;1.75;;
30249;SDS011;17064;47.974;13.826;2023-06-22T20:26:13;8.93;;;1.60;;
30249;SDS011;17064;47.974;13.826;2023-06-22T20:31:16;5.25;;;1.50;;
30249;SDS011;17064;47.974;13.826;2023-06-22T20:36:17;4.83;;;1.20;;
30249;SDS011;17064;47.974;13.826;2023-06-22T20:46:20;12.18;;;2.53;;
30249;SDS011;17064;47.974;13.826;2023-06-22T20:51:20;9.20;;;3.00;;
30249;SDS011;17064;47.974;13.826;2023-06-22T20:56:21;13.20;;;4.40;;
30249;SDS011;17064;47.974;13.826;2023-06-22T21:01:23;13.68;;;6.00;;
30249;SDS011;17064;47.974;13.826;2023-06-22T21:06:24;19.55;;;5.80;;
30249;SDS011;17064;47.974;13.826;2023-06-22T21:11:25;15.82;;;5.47;;
30249;SDS011;17064;47.974;13.826;2023-06-22T21:16:25;16.23;;;4.70;;
30249;SDS011;17064;47.974;13.826;2023-06-22T21:21:26;16.00;;;6.32;;
30249;SDS011;17064;47.974;13.826;2023-06-22T21:26:27;16.38;;;4.63;;
30249;SDS011;17064;47.974;13.826;2023-06-22T21:31:28;12.13;;;4.97;;
30249;SDS011;17064;47.974;13.826;2023-06-22T21:36:28;18.70;;;4.70;;
30249;SDS011;17064;47.974;13.826;2023-06-22T21:41:29;9.07;;;4.05;;
30249;SDS011;17064;47.974;13.826;2023-06-22T21:46:30;13.30;;;4.03;;
30249;SDS011;17064;47.974;13.826;2023-06-22T21:51:30;13.18;;;4.57;;
30249;SDS011;17064;47.974;13.826;2023-06-22T21:56:32;8.47;;;4.27;;
30249;SDS011;17064;47.974;13.826;2023-06-22T22:01:32;10.55;;;6.13;;
30249;SDS011;17064;47.974;13.826;2023-06-22T22:06:33;11.88;;;6.75;;
30249;SDS011;17064;47.974;13.826;2023-06-22T22:11:34;15.05;;;4.80;;
30249;SDS011;17064;47.974;13.826;2023-06-22T22:16:35;19.23;;;5.47;;
30249;SDS011;17064;47.974;13.826;2023-06-22T22:21:36;15.88;;;4.20;;
30249;SDS011;17064;47.974;13.826;2023-06-22T22:26:36;17.30;;;4.30;;
30249;SDS011;17064;47.974;13.826;2023-06-22T22:31:37;10.98;;;4.13;;
30249;SDS011;17064;47.974;13.826;2023-06-22T22:36:38;13.38;;;4.13;;
30249;SDS011;17064;47.974;13.826;2023-06-22T22:41:41;17.48;;;4.47;;
30249;SDS011;17064;47.974;13.826;2023-06-22T22:46:42;11.63;;;3.70;;
30249;SDS011;17064;47.974;13.826;2023-06-22T22:51:43;16.95;;;4.18;;
30249;SDS011;17064;47.974;13.826;2023-06-22T22:56:47;13.80;;;4.13;;
30249;SDS011;17064;47.974;13.826;2023-06-22T23:01:49;13.73;;;4.78;;
30249;SDS011;17064;47.974;13.826;2023-06-22T23:06:49;14.20;;;4.15;;
30249;SDS011;17064;47.974;13.826;2023-06-22T23:11:50;12.60;;;3.85;;
30249;SDS011;17064;47.974;13.826;2023-06-22T23:16:52;22.25;;;5.00;;
30249;SDS011;17064;47.974;13.826;2023-06-22T23:21:56;12.02;;;3.38;;
30249;SDS011;17064;47.974;13.826;2023-06-22T23:26:57;12.57;;;3.08;;
30249;SDS011;17064;47.974;13.826;2023-06-22T23:31:58;11.82;;;4.18;;
30249;SDS011;17064;47.974;13.826;2023-06-22T23:36:59;8.88;;;3.38;;
30249;SDS011;17064;47.974;13.826;2023-06-22T23:42:00;9.20;;;2.40;;
30249;SDS011;17064;47.974;13.826;2023-06-22T23:47:00;9.00;;;2.88;;
30249;SDS011;17064;47.974;13.826;2023-06-22T23:52:02;6.68;;;3.03;;
30249;SDS011;17064;47.974;13.826;2023-06-22T23:57:04;8.18;;;2.22;;
